Time;durP1;ratioP1;P1;durP2;ratioP2;P2;SDS_P1;SDS_P2;PMS_P1;PMS_P2;Temp;Humidity;BMP_temperature;BMP_pressure;BME280_temperature;BME280_humidity;BME280_pressure;Samples;Min_cycle;Max_cycle;Signal;HPM_P1;HPM_P2
2020/12/16 00:01:23;;;;;;;12.03;10.83;;;;;;;7.13;100.00;153192.41;5016690;28;20468;-95
2020/12/16 00:03:58;;;;;;;12.10;10.90;;;;;;;7.12;100.00;153189.81;5020742;28;20447;-95
2020/12/16 00:06:34;;;;;;;11.97;10.77;;;;;;;7.13;100.00;153192.41;5003700;28;20444;-95
2020/12/16 00:09:11;;;;;;;11.90;10.70;;;;;;;7.11;100.00;153187.25;4999319;28;20436;-95
2020/12/16 00:11:46;;;;;;;12.50;11.00;;;;;;;7.10;100.00;153183.34;4998951;28;20540;-94
2020/12/16 00:14:22;;;;;;;12.67;10.67;;;;;;;7.08;100.00;153178.19;4999620;28;20425;-93
2020/12/16 00:16:57;;;;;;;14.30;11.70;;;;;;;7.07;100.00;153175.66;4999941;28;20437;-93
2020/12/16 00:19:33;;;;;;;12.17;10.90;;;;;;;7.06;100.00;153174.34;4999129;28;20563;-94
2020/12/16 00:22:09;;;;;;;11.40;10.30;;;;;;;7.03;100.00;153165.28;4998364;28;20443;-94
2020/12/16 00:24:46;;;;;;;14.90;12.43;;;;;;;7.03;100.00;153165.28;4984957;28;20455;-93
2020/12/16 00:27:21;;;;;;;12.73;11.40;;;;;;;7.03;100.00;153166.59;4979245;28;20438;-94
2020/12/16 00:29:57;;;;;;;12.07;10.87;;;;;;;6.99;100.00;153155.00;4982880;28;20466;-94
2020/12/16 00:32:35;;;;;;;11.37;10.00;;;;;;;6.93;100.00;153140.78;4983521;28;20425;-93
2020/12/16 00:35:11;;;;;;;11.23;10.07;;;;;;;6.92;100.00;153138.19;4983544;28;20441;-95
2020/12/16 00:37:46;;;;;;;10.37;9.37;;;;;;;6.89;100.00;153129.13;4966990;28;20425;-93
2020/12/16 00:40:23;;;;;;;12.13;10.30;;;;;;;6.85;100.00;153120.13;4982807;28;20505;-93
2020/12/16 00:42:59;;;;;;;10.60;9.50;;;;;;;6.81;100.00;153109.78;4982990;28;20476;-94
2020/12/16 00:45:34;;;;;;;11.03;9.57;;;;;;;6.85;100.00;153118.81;4983249;28;20429;-93
2020/12/16 00:48:09;;;;;;;12.87;10.93;;;;;;;6.89;100.00;153130.44;4982726;28;20842;-92
2020/12/16 00:50:45;;;;;;;11.93;10.73;;;;;;;6.92;100.00;153138.19;4982795;28;20448;-92
2020/12/16 00:53:20;;;;;;;11.13;10.03;;;;;;;6.94;100.00;153142.03;4982910;28;20920;-94
2020/12/16 00:56:02;;;;;;;12.20;9.90;;;;;;;6.91;100.00;153135.59;4982722;28;20468;-93
2020/12/16 00:58:38;;;;;;;11.97;10.70;;;;;;;6.91;100.00;153135.59;4982822;28;20916;-93
2020/12/16 01:01:14;;;;;;;13.13;10.97;;;;;;;6.87;100.00;153123.97;4982782;28;20576;-93
2020/12/16 01:03:50;;;;;;;12.27;10.97;;;;;;;6.85;100.00;153118.81;4983242;28;20413;-93
2020/12/16 01:06:25;;;;;;;13.60;12.20;;;;;;;6.82;100.00;153111.06;4982436;28;20441;-92
2020/12/16 01:09:01;;;;;;;14.43;12.30;;;;;;;6.85;100.00;153120.13;4982839;28;20987;-93
2020/12/16 01:11:37;;;;;;;12.97;11.60;;;;;;;6.87;100.00;153125.28;4982878;28;20474;-94
2020/12/16 01:14:14;;;;;;;14.00;12.50;;;;;;;6.87;100.00;153123.97;4982352;28;20452;-93
2020/12/16 01:16:50;;;;;;;14.20;12.73;;;;;;;6.87;100.00;153125.28;4982351;28;20433;-93
2020/12/16 01:19:31;;;;;;;14.97;13.30;;;;;;;6.86;100.00;153122.69;4983133;28;20778;-93
2020/12/16 01:22:07;;;;;;;14.93;12.40;;;;;;;6.89;100.00;153130.44;4982551;28;20450;-93
2020/12/16 01:24:42;;;;;;;13.27;11.90;;;;;;;6.90;100.00;153133.03;4991770;28;20433;-93
2020/12/16 01:27:19;;;;;;;13.47;11.50;;;;;;;6.90;100.00;153131.72;4997529;28;20833;-93
2020/12/16 01:29:55;;;;;;;13.47;12.10;;;;;;;6.92;100.00;153138.19;4998169;28;20434;-95
2020/12/16 01:32:32;;;;;;;13.03;11.80;;;;;;;6.92;100.00;153138.19;4971533;28;20523;-94
2020/12/16 01:35:10;;;;;;;15.13;12.80;;;;;;;6.93;100.00;153140.78;4982402;28;20430;-94
2020/12/16 01:37:46;;;;;;;13.77;12.33;;;;;;;6.93;100.00;153140.78;4981992;28;20429;-94
2020/12/16 01:40:23;;;;;;;13.13;11.60;;;;;;;6.95;100.00;153145.94;4981200;28;20513;-96
2020/12/16 01:43:00;;;;;;;16.50;12.50;;;;;;;6.95;100.00;153145.94;4981869;28;20477;-93
2020/12/16 01:45:36;;;;;;;13.40;11.50;;;;;;;6.97;100.00;153149.78;4981447;28;20522;-93
2020/12/16 01:48:11;;;;;;;17.00;12.70;;;;;;;6.98;100.00;153153.69;4981523;28;20445;-93
2020/12/16 01:50:47;;;;;;;12.67;11.00;;;;;;;6.98;100.00;153153.69;4981700;28;20429;-93
2020/12/16 01:53:33;;;;;;;13.03;11.73;;;;;;;6.99;100.00;153155.00;4965131;28;20429;-93
2020/12/16 01:56:09;;;;;;;13.90;12.40;;;;;;;7.00;100.00;153158.84;4981536;28;20829;-93
2020/12/16 01:58:57;;;;;;;14.10;12.30;;;;;;;7.01;100.00;153160.13;4981366;28;20426;-93
2020/12/16 02:01:36;;;;;;;13.70;12.30;;;;;;;7.01;100.00;153160.13;4981258;28;20484;-93
2020/12/16 02:04:13;;;;;;;13.50;12.10;;;;;;;7.02;100.00;153162.69;4981381;28;20513;-93
2020/12/16 02:06:50;;;;;;;13.27;11.70;;;;;;;7.02;100.00;153162.69;4981626;28;20542;-93
2020/12/16 02:09:25;;;;;;;13.23;11.03;;;;;;;7.03;100.00;153165.28;4981813;28;20438;-93
2020/12/16 02:12:16;;;;;;;12.70;11.40;;;;;;;7.05;100.00;153171.75;4981061;28;20479;-93
2020/12/16 02:14:52;;;;;;;12.10;10.83;;;;;;;7.07;100.00;153175.66;4981155;28;20433;-94
2020/12/16 02:17:31;;;;;;;11.77;10.10;;;;;;;7.10;100.00;153184.66;4981139;28;20430;-93
2020/12/16 02:20:08;;;;;;;12.63;10.60;;;;;;;7.12;100.00;153188.56;4981120;28;20469;-93
2020/12/16 02:22:50;;;;;;;12.53;11.23;;;;;;;7.12;100.00;153189.81;4980758;28;20429;-93
2020/12/16 02:25:30;;;;;;;12.87;11.57;;;;;;;7.13;100.00;153191.09;4981438;28;20465;-93
2020/12/16 02:28:11;;;;;;;13.10;11.80;;;;;;;7.13;100.00;153192.41;4981313;28;20421;-93
2020/12/16 02:30:51;;;;;;;12.10;10.87;;;;;;;7.13;100.00;153191.09;5000238;28;20449;-93
2020/12/16 02:33:51;;;;;;;12.10;10.80;;;;;;;7.11;100.00;153187.25;5000725;28;20441;-93
2020/12/16 02:36:33;;;;;;;13.07;11.23;;;;;;;7.13;100.00;153191.09;4997243;28;20446;-93
2020/12/16 02:39:25;;;;;;;11.03;9.93;;;;;;;7.12;100.00;153189.81;4980095;28;20880;-93
2020/12/16 02:42:10;;;;;;;13.37;11.07;;;;;;;7.14;100.00;153195.00;4999973;28;20578;-93
2020/12/16 02:44:46;;;;;;;13.43;11.90;;;;;;;7.15;100.00;153197.56;5000239;28;20440;-92
2020/12/16 02:47:37;;;;;;;15.33;11.40;;;;;;;7.15;100.00;153197.56;5000033;28;20436;-93
2020/12/16 02:50:13;;;;;;;11.97;10.80;;;;;;;7.15;100.00;153196.25;5000313;28;20472;-92
2020/12/16 02:52:53;;;;;;;13.80;11.30;;;;;;;7.14;100.00;153195.00;4999423;28;20427;-93
2020/12/16 02:55:30;;;;;;;12.37;10.93;;;;;;;7.13;100.00;153192.41;4992275;28;20830;-93
2020/12/16 02:58:10;;;;;;;13.60;10.40;;;;;;;7.14;100.00;153193.72;4980116;28;20440;-93
2020/12/16 03:00:46;;;;;;;13.87;12.40;;;;;;;7.13;100.00;153192.41;4980222;28;20473;-93
2020/12/16 03:03:40;;;;;;;18.40;11.50;;;;;;;7.12;100.00;153189.81;4995875;28;20425;-93
2020/12/16 03:06:18;;;;;;;12.30;11.10;;;;;;;7.11;100.00;153187.25;5011427;28;20484;-92
2020/12/16 03:09:00;;;;;;;14.83;12.10;;;;;;;7.10;100.00;153183.34;4999503;28;20425;-93
2020/12/16 03:11:39;;;;;;;15.00;12.27;;;;;;;7.10;100.00;153184.66;4999743;28;20456;-93
2020/12/16 03:14:18;;;;;;;13.50;12.10;;;;;;;7.08;100.00;153178.19;4999469;28;20421;-92
2020/12/16 03:16:55;;;;;;;12.50;10.90;;;;;;;7.08;100.00;153179.50;4999663;28;20486;-91
2020/12/16 03:19:34;;;;;;;14.83;11.80;;;;;;;7.03;100.00;153166.59;4999621;28;20943;-93
2020/12/16 03:22:11;;;;;;;14.43;12.50;;;;;;;7.04;100.00;153169.16;4983131;28;20436;-93
2020/12/16 03:24:53;;;;;;;12.23;10.93;;;;;;;6.99;100.00;153156.25;4999181;28;20444;-93
2020/12/16 03:27:51;;;;;;;13.23;11.93;;;;;;;6.97;100.00;153151.09;5010234;28;20917;-93
2020/12/16 03:30:57;;;;;;;12.03;10.80;;;;;;;6.97;100.00;153151.09;5002408;28;20468;-94
2020/12/16 03:33:55;;;;;;;13.50;12.10;;;;;;;6.98;100.00;153152.38;4997833;28;20417;-92
2020/12/16 03:36:47;;;;;;;15.43;12.23;;;;;;;6.94;100.00;153143.34;4979881;28;20449;-92
2020/12/16 03:39:22;;;;;;;12.93;11.63;;;;;;;6.94;100.00;153142.03;4980129;28;20435;-92
2020/12/16 03:41:58;;;;;;;13.80;10.93;;;;;;;6.91;100.00;153135.59;4979698;28;20508;-93
2020/12/16 03:44:34;;;;;;;13.13;11.80;;;;;;;6.93;100.00;153139.47;4980318;28;20437;-93
2020/12/16 03:47:11;;;;;;;14.70;12.90;;;;;;;6.95;100.00;153145.94;4979760;28;20445;-93
2020/12/16 03:49:48;;;;;;;13.00;11.53;;;;;;;6.94;100.00;153143.34;4979535;28;20429;-93
2020/12/16 03:52:24;;;;;;;13.40;11.20;;;;;;;6.95;100.00;153144.63;4980647;28;20465;-94
2020/12/16 03:55:13;;;;;;;13.13;11.63;;;;;;;6.97;100.00;153151.09;4980214;28;20434;-93
2020/12/16 03:58:14;;;;;;;12.80;11.50;;;;;;;6.96;100.00;153148.53;4979668;28;20441;-93
2020/12/16 04:01:17;;;;;;;13.03;11.23;;;;;;;6.94;100.00;153143.34;4994244;28;20477;-93
2020/12/16 04:03:55;;;;;;;13.07;11.63;;;;;;;6.94;100.00;153143.34;4979423;28;20433;-93
2020/12/16 04:06:39;;;;;;;13.07;10.87;;;;;;;6.93;100.00;153139.47;4979253;28;20468;-92
2020/12/16 04:09:16;;;;;;;15.90;12.20;;;;;;;6.90;100.00;153131.72;4980947;28;20447;-93
2020/12/16 04:12:01;;;;;;;12.47;11.17;;;;;;;6.87;100.00;153125.28;4991822;28;20442;-92
2020/12/16 04:14:41;;;;;;;12.53;11.23;;;;;;;6.85;100.00;153118.81;5009657;28;20441;-93
2020/12/16 04:17:21;;;;;;;11.40;10.20;;;;;;;6.84;100.00;153116.22;5005869;28;20499;-94
2020/12/16 04:20:16;;;;;;;12.33;11.03;;;;;;;6.85;100.00;153120.13;4998266;28;20473;-93
2020/12/16 04:23:01;;;;;;;12.23;10.93;;;;;;;6.86;100.00;153122.69;4999151;28;20432;-93
2020/12/16 04:25:37;;;;;;;13.50;12.07;;;;;;;6.84;100.00;153116.22;4998731;28;20527;-93
2020/12/16 04:28:18;;;;;;;12.27;11.03;;;;;;;6.79;100.00;153104.63;5013841;28;20508;-93
2020/12/16 04:30:54;;;;;;;11.73;10.30;;;;;;;6.78;100.00;153100.78;4998746;28;20443;-93
2020/12/16 04:33:29;;;;;;;12.43;11.07;;;;;;;6.74;100.00;153091.72;4982555;28;20810;-93
2020/12/16 04:36:08;;;;;;;11.50;10.30;;;;;;;6.71;100.00;153083.97;4998690;28;20539;-93
2020/12/16 04:38:43;;;;;;;11.87;10.67;;;;;;;6.68;100.00;153076.22;4998613;28;20809;-93
2020/12/16 04:41:19;;;;;;;11.77;10.63;;;;;;;6.63;100.00;153063.31;4998654;28;20472;-93
2020/12/16 04:44:07;;;;;;;11.97;10.67;;;;;;;6.58;100.00;153050.41;4982219;28;20432;-93
2020/12/16 04:46:46;;;;;;;15.33;12.20;;;;;;;6.50;100.00;153031.06;4979206;28;20437;-92
2020/12/16 04:49:29;;;;;;;12.47;11.13;;;;;;;6.45;100.00;153018.16;4964083;28;20437;-92
2020/12/16 04:52:07;;;;;;;16.30;12.27;;;;;;;6.37;100.00;152997.53;4998657;28;20440;-92
2020/12/16 04:54:57;;;;;;;12.43;10.77;;;;;;;6.34;100.00;152989.78;4997126;28;20909;-92
2020/12/16 04:57:39;;;;;;;18.07;11.40;;;;;;;6.24;100.00;152962.66;4981787;28;20457;-92
2020/12/16 05:00:14;;;;;;;15.43;11.27;;;;;;;6.19;100.00;152951.06;4981892;28;20827;-92
2020/12/16 05:03:16;;;;;;;34.80;12.30;;;;;;;6.09;100.00;152925.22;4996832;28;20430;-93
2020/12/16 05:06:08;;;;;;;26.03;11.00;;;;;;;6.06;100.00;152918.78;4997330;28;20433;-93
2020/12/16 05:09:01;;;;;;;43.07;10.57;;;;;;;6.00;100.00;152902.03;4985303;28;20445;-92
2020/12/16 05:11:43;;;;;;;27.53;10.60;;;;;;;5.97;100.00;152895.59;4963002;28;20445;-93
2020/12/16 05:14:20;;;;;;;10.03;9.00;;;;;;;5.97;100.00;152895.59;4962268;28;20822;-92
2020/12/16 05:17:00;;;;;;;29.53;10.83;;;;;;;5.91;100.00;152880.09;4982625;28;20440;-92
2020/12/16 05:19:40;;;;;;;26.03;10.10;;;;;;;5.86;100.00;152867.22;4985400;28;20440;-92
2020/12/16 05:22:23;;;;;;;33.77;10.27;;;;;;;5.81;100.00;152852.97;4966238;28;20445;-92
2020/12/16 05:25:00;;;;;;;16.90;9.47;;;;;;;5.82;100.00;152856.88;4965657;28;20437;-92
2020/12/16 05:27:36;;;;;;;17.20;9.87;;;;;;;5.74;100.00;152836.22;4965903;28;20445;-92
2020/12/16 05:30:11;;;;;;;11.90;8.50;;;;;;;5.75;100.00;152838.78;4965891;28;20469;-92
2020/12/16 05:32:47;;;;;;;22.07;9.30;;;;;;;5.77;100.00;152843.94;4965896;28;20432;-92
2020/12/16 05:35:27;;;;;;;12.13;9.57;;;;;;;5.77;100.00;152843.94;4969097;28;20910;-92
2020/12/16 05:38:05;;;;;;;12.10;9.87;;;;;;;5.79;100.00;152849.13;4965641;28;20465;-92
2020/12/16 05:40:41;;;;;;;10.20;8.83;;;;;;;5.81;100.00;152852.97;4966106;28;20980;-92
2020/12/16 05:43:26;;;;;;;10.50;9.37;;;;;;;5.87;100.00;152869.81;4980413;28;20718;-93
2020/12/16 05:46:01;;;;;;;12.63;9.57;;;;;;;5.91;100.00;152880.09;4985222;28;20927;-92
2020/12/16 05:48:37;;;;;;;12.30;10.00;;;;;;;5.95;100.00;152889.16;4984803;28;20432;-92
2020/12/16 05:51:17;;;;;;;10.73;9.60;;;;;;;5.94;100.00;152886.56;4984881;28;20440;-92
2020/12/16 05:53:52;;;;;;;11.17;9.40;;;;;;;5.88;100.00;152872.34;4984722;28;20425;-93
2020/12/16 05:56:29;;;;;;;11.77;10.33;;;;;;;5.90;100.00;152877.56;4984908;28;20444;-92
2020/12/16 05:59:08;;;;;;;11.10;9.10;;;;;;;5.87;100.00;152868.50;4984680;28;20441;-92
2020/12/16 06:01:44;;;;;;;11.50;9.57;;;;;;;5.82;100.00;152855.56;4984836;28;20477;-92
2020/12/16 06:04:20;;;;;;;9.43;8.43;;;;;;;5.77;100.00;152843.94;4985285;28;20425;-92
2020/12/16 06:06:56;;;;;;;11.70;9.70;;;;;;;5.80;100.00;152850.44;4984703;28;20896;-92
2020/12/16 06:09:32;;;;;;;10.63;9.53;;;;;;;5.79;100.00;152849.13;4984442;28;20531;-92
2020/12/16 06:12:09;;;;;;;9.30;7.80;;;;;;;5.84;100.00;152860.72;4984302;28;20437;-92
2020/12/16 06:14:49;;;;;;;9.50;8.50;;;;;;;5.84;100.00;152862.00;4984570;28;20432;-92
2020/12/16 06:17:24;;;;;;;11.00;9.53;;;;;;;5.86;100.00;152865.91;4984879;28;20837;-92
2020/12/16 06:20:00;;;;;;;10.13;9.10;;;;;;;5.85;100.00;152863.38;4984144;28;20433;-92
2020/12/16 06:22:37;;;;;;;12.53;10.00;;;;;;;5.84;100.00;152862.00;4984770;28;20429;-92
2020/12/16 06:25:13;;;;;;;12.43;8.80;;;;;;;5.81;100.00;152854.28;4984299;28;20920;-91
2020/12/16 06:27:51;;;;;;;10.70;9.00;;;;;;;5.81;100.00;152854.28;4984502;28;20429;-92
2020/12/16 06:30:28;;;;;;;9.60;8.60;;;;;;;5.74;100.00;152836.22;4984413;28;20460;-93
2020/12/16 06:33:15;;;;;;;11.37;9.13;;;;;;;5.72;100.00;152831.03;4984157;28;20436;-93
2020/12/16 06:35:57;;;;;;;10.00;8.80;;;;;;;5.75;100.00;152837.47;4984407;28;20437;-93
2020/12/16 06:38:40;;;;;;;10.60;9.03;;;;;;;5.74;100.00;152834.94;4984083;28;20433;-93
2020/12/16 06:41:23;;;;;;;12.40;8.70;;;;;;;5.69;100.00;152823.34;4983909;28;20550;-92
2020/12/16 06:44:16;;;;;;;11.50;8.90;;;;;;;5.69;100.00;152823.34;4984064;28;21022;-92
2020/12/16 06:46:52;;;;;;;9.80;8.33;;;;;;;5.65;100.00;152813.00;5011430;28;20797;-78
2020/12/16 06:49:33;;;;;;;10.90;9.80;;;;;;;5.63;100.00;152806.56;4979068;28;20444;-79
2020/12/16 06:52:14;;;;;;;12.47;10.30;;;;;;;5.65;100.00;152811.69;4989121;28;20457;-79
2020/12/16 06:54:53;;;;;;;11.07;9.80;;;;;;;5.64;100.00;152809.16;5027222;28;20881;-79
2020/12/16 06:57:29;;;;;;;15.33;10.40;;;;;;;5.64;100.00;152809.16;4976624;28;20436;-79
2020/12/16 07:00:06;;;;;;;12.27;10.10;;;;;;;5.64;100.00;152809.16;4979306;28;20440;-79
2020/12/16 07:02:41;;;;;;;11.23;9.20;;;;;;;5.63;100.00;152806.56;4995746;28;20433;-78
2020/12/16 07:05:40;;;;;;;12.00;10.18;;;;;;;5.60;100.00;152800.09;5009911;28;20436;-78
2020/12/16 07:08:28;;;;;;;12.97;10.33;;;;;;;5.66;100.00;152814.28;4994710;28;20219;-78
2020/12/16 07:11:08;;;;;;;11.50;9.90;;;;;;;5.65;100.00;152813.00;4979956;28;20947;-93
2020/12/16 07:14:08;;;;;;;11.83;8.77;;;;;;;5.61;100.00;152802.72;4983752;28;20432;-93
2020/12/16 07:16:45;;;;;;;11.23;9.13;;;;;;;5.64;100.00;152810.41;4984011;28;20445;-92
2020/12/16 07:19:27;;;;;;;11.40;9.23;;;;;;;5.65;100.00;152813.00;4983834;28;20448;-92
2020/12/16 07:22:16;;;;;;;9.73;8.50;;;;;;;5.71;100.00;152827.19;5002527;28;20476;-93
2020/12/16 07:24:53;;;;;;;9.77;8.80;;;;;;;5.68;100.00;152820.75;5000946;28;20425;-93
2020/12/16 07:27:31;;;;;;;10.13;8.60;;;;;;;5.67;100.00;152816.84;5017559;28;20425;-93
2020/12/16 07:30:07;;;;;;;10.17;9.17;;;;;;;5.68;100.00;152819.44;4978085;28;20437;-93
2020/12/16 07:32:44;;;;;;;10.50;9.00;;;;;;;5.71;100.00;152828.47;4983508;28;20462;-93
2020/12/16 07:35:20;;;;;;;11.67;8.80;;;;;;;5.70;100.00;152825.88;5013647;28;20444;-93
2020/12/16 07:37:59;;;;;;;11.10;9.00;;;;;;;5.70;100.00;152825.88;4982398;28;20428;-94
2020/12/16 07:40:34;;;;;;;12.73;9.23;;;;;;;5.67;100.00;152818.16;5013157;28;20480;-93
2020/12/16 07:43:12;;;;;;;11.67;8.80;;;;;;;5.72;100.00;152831.03;4997102;28;20546;-93
2020/12/16 07:46:00;;;;;;;10.80;9.70;;;;;;;5.75;100.00;152837.47;5002852;28;20463;-93
2020/12/16 07:48:37;;;;;;;11.63;9.47;;;;;;;5.75;100.00;152837.47;5002190;28;20436;-93
2020/12/16 07:51:12;;;;;;;10.90;9.03;;;;;;;5.74;100.00;152836.22;5002200;28;20451;-93
2020/12/16 07:53:49;;;;;;;13.10;9.30;;;;;;;5.73;100.00;152833.63;5004596;28;20485;-93
2020/12/16 07:56:24;;;;;;;9.97;8.87;;;;;;;5.71;100.00;152828.47;5003307;28;20435;-94
2020/12/16 07:59:13;;;;;;;11.27;9.00;;;;;;;5.67;100.00;152816.84;5001996;28;20434;-92
2020/12/16 08:01:49;;;;;;;11.90;9.33;;;;;;;5.62;100.00;152805.25;5002015;28;20476;-93
2020/12/16 08:04:25;;;;;;;10.93;8.50;;;;;;;5.63;100.00;152806.56;5002430;28;20518;-93
2020/12/16 08:07:11;;;;;;;8.57;7.67;;;;;;;5.63;100.00;152806.56;5001768;28;20510;-93
2020/12/16 08:09:52;;;;;;;9.50;8.30;;;;;;;5.59;100.00;152796.25;5002376;28;20432;-93
2020/12/16 08:12:28;;;;;;;8.93;8.03;;;;;;;5.54;100.00;152784.63;5002425;28;20432;-93
2020/12/16 08:15:06;;;;;;;9.97;8.50;;;;;;;5.51;100.00;152776.88;5002415;28;20431;-93
2020/12/16 08:17:41;;;;;;;10.50;8.60;;;;;;;5.52;100.00;152779.47;5001634;28;20439;-92
2020/12/16 08:20:19;;;;;;;11.43;8.47;;;;;;;5.60;100.00;152800.09;5001852;28;20478;-92
2020/12/16 08:22:58;;;;;;;15.40;10.57;;;;;;;5.61;100.00;152802.72;5002026;28;20431;-91
2020/12/16 08:25:36;;;;;;;10.37;8.67;;;;;;;5.52;100.00;152780.78;5001592;28;20446;-92
2020/12/16 08:28:11;;;;;;;12.87;8.47;;;;;;;5.58;100.00;152794.97;5001880;28;20431;-91
2020/12/16 08:30:47;;;;;;;10.03;8.93;;;;;;;5.65;100.00;152813.00;5001044;28;20957;-92
2020/12/16 08:33:25;;;;;;;10.80;9.00;;;;;;;5.71;100.00;152828.47;5001369;28;20776;-91
2020/12/16 08:36:04;;;;;;;11.80;9.10;;;;;;;5.77;100.00;152843.94;5001112;28;20447;-91
2020/12/16 08:38:43;;;;;;;11.70;8.27;;;;;;;5.73;100.00;152832.34;5001199;28;20467;-91
2020/12/16 08:41:24;;;;;;;9.30;7.87;;;;;;;5.69;100.00;152823.34;4986992;28;20799;-91
2020/12/16 08:44:00;;;;;;;9.17;8.13;;;;;;;5.75;100.00;152838.78;4964023;28;20940;-90
2020/12/16 08:46:39;;;;;;;10.47;8.40;;;;;;;5.84;100.00;152862.00;4965368;28;20469;-90
2020/12/16 08:49:15;;;;;;;9.80;8.80;;;;;;;5.93;100.00;152885.25;4990431;28;20893;-90
2020/12/16 08:51:51;;;;;;;10.00;8.47;;;;;;;6.01;100.00;152905.88;4984819;28;20447;-91
2020/12/16 08:54:28;;;;;;;11.60;9.30;;;;;;;6.07;100.00;152921.38;4999865;28;20490;-91
2020/12/16 08:57:03;;;;;;;10.80;8.67;;;;;;;6.12;100.00;152934.28;4985601;28;20802;-91
2020/12/16 08:59:39;;;;;;;11.10;9.93;;;;;;;6.15;100.00;152940.72;4985929;28;20439;-92
2020/12/16 09:02:14;;;;;;;9.90;8.23;;;;;;;6.21;100.00;152954.94;5000939;28;20460;-91
2020/12/16 09:04:54;;;;;;;11.20;9.03;;;;;;;6.22;100.00;152957.53;5022195;28;20449;-92
2020/12/16 09:07:30;;;;;;;10.27;8.53;;;;;;;6.25;100.00;152965.28;4999272;28;20870;-91
2020/12/16 09:10:09;;;;;;;10.10;8.80;;;;;;;6.34;100.00;152989.78;4981638;28;20952;-92
2020/12/16 09:12:45;;;;;;;9.30;8.37;;;;;;;6.42;100.00;153009.13;4997226;28;20792;-91
2020/12/16 09:15:21;;;;;;;8.33;7.50;;;;;;;6.53;100.00;153037.50;4998158;28;20456;-91
2020/12/16 09:17:56;;;;;;;8.60;7.70;;;;;;;6.60;100.00;153055.56;5001525;28;20436;-91
2020/12/16 09:20:32;;;;;;;9.03;7.27;;;;;;;6.68;100.00;153076.22;4999594;28;20845;-86
2020/12/16 09:23:08;;;;;;;9.13;7.90;;;;;;;6.75;100.00;153094.31;4985039;28;20919;-91
2020/12/16 09:25:51;;;;;;;9.93;7.37;;;;;;;6.78;100.00;153102.03;4982778;28;20843;-91
2020/12/16 09:28:33;;;;;;;8.77;7.60;;;;;;;6.86;100.00;153121.44;5000002;28;20436;-92
2020/12/16 09:31:16;;;;;;;10.03;8.30;;;;;;;6.88;100.00;153126.59;5000080;28;20448;-92
2020/12/16 09:33:55;;;;;;;8.57;7.70;;;;;;;6.88;100.00;153126.59;4984772;28;20432;-92
2020/12/16 09:36:31;;;;;;;10.80;8.70;;;;;;;6.90;100.00;153133.03;4996477;28;20446;-92
2020/12/16 09:39:08;;;;;;;8.87;7.97;;;;;;;6.91;100.00;153134.34;4998447;28;20452;-92
2020/12/16 09:41:52;;;;;;;8.60;7.80;;;;;;;6.94;100.00;153143.34;4971269;28;20469;-92
2020/12/16 09:44:29;;;;;;;13.23;9.33;;;;;;;7.02;100.00;153164.00;5016207;28;20447;-92
2020/12/16 09:47:18;;;;;;;11.70;10.03;;;;;;;7.08;100.00;153178.19;5001000;28;20436;-91
2020/12/16 09:49:58;;;;;;;9.67;8.77;;;;;;;7.11;100.00;153187.25;4998122;28;20428;-91
2020/12/16 09:52:34;;;;;;;10.30;8.73;;;;;;;7.21;100.00;153211.78;5019120;28;20436;-92
2020/12/16 09:55:15;;;;;;;9.90;8.87;;;;;;;7.27;100.00;153228.56;5018775;28;20448;-91
2020/12/16 09:57:58;;;;;;;9.70;8.67;;;;;;;7.33;100.00;153244.03;5020113;28;20444;-91
2020/12/16 10:00:35;;;;;;;11.13;9.47;;;;;;;7.39;100.00;153257.00;5019005;28;20464;-91
2020/12/16 10:03:12;;;;;;;13.57;9.40;;;;;;;7.42;100.00;153264.69;5019791;28;20531;-92
2020/12/16 10:05:47;;;;;;;9.80;8.13;;;;;;;7.44;100.00;153269.91;5019809;28;20452;-91
2020/12/16 10:08:23;;;;;;;10.00;8.97;;;;;;;7.44;100.00;153269.91;5015431;28;20415;-90
2020/12/16 10:10:59;;;;;;;10.90;9.23;;;;;;;7.47;100.00;153278.91;5029182;28;20437;-91
2020/12/16 10:13:34;;;;;;;9.63;8.20;;;;;;;7.48;100.00;153281.50;4998200;28;20429;-92
2020/12/16 10:16:09;;;;;;;10.97;9.77;;;;;;;7.53;100.00;153293.13;5004186;28;20444;-91
2020/12/16 10:18:45;;;;;;;10.67;9.57;;;;;;;7.52;100.00;153290.56;4999589;28;20444;-92
2020/12/16 10:21:20;;;;;;;11.67;8.83;;;;;;;7.56;100.00;153300.88;4983818;28;20472;-91
2020/12/16 10:23:55;;;;;;;11.13;9.63;;;;;;;7.64;100.00;153321.56;4984243;28;20456;-91
2020/12/16 10:26:35;;;;;;;14.20;11.60;;;;;;;7.65;100.00;153325.41;5001689;28;20481;-92
2020/12/16 10:29:10;;;;;;;11.90;10.40;;;;;;;7.78;100.00;153357.72;5003709;28;20451;-93
2020/12/16 10:31:49;;;;;;;12.20;10.80;;;;;;;7.77;100.00;153355.13;5003300;28;20505;-93
2020/12/16 10:34:24;;;;;;;13.07;11.47;;;;;;;7.80;100.00;153362.88;5003508;28;20428;-93
2020/12/16 10:36:59;;;;;;;12.83;11.10;;;;;;;7.85;100.00;153375.81;5003612;28;20886;-92
2020/12/16 10:39:35;;;;;;;12.63;9.73;;;;;;;7.90;100.00;153388.72;5003225;28;20526;-92
2020/12/16 10:42:12;;;;;;;12.73;11.27;;;;;;;7.87;100.00;153380.97;4998574;28;20483;-92
2020/12/16 10:44:47;;;;;;;15.17;11.93;;;;;;;7.89;100.00;153387.41;5001531;28;20808;-92
2020/12/16 10:47:23;;;;;;;11.73;9.33;;;;;;;7.89;100.00;153387.41;5002892;28;20525;-91
2020/12/16 10:49:59;;;;;;;13.90;10.40;;;;;;;7.98;100.00;153409.41;5002548;28;20434;-92
2020/12/16 10:52:34;;;;;;;10.87;8.90;;;;;;;8.06;100.00;153430.06;5003204;28;20435;-92
2020/12/16 10:55:09;;;;;;;12.57;10.30;;;;;;;8.17;100.00;153457.19;5018588;28;20443;-92
2020/12/16 10:57:46;;;;;;;12.07;10.20;;;;;;;8.16;100.00;153455.91;5020038;28;20430;-92
2020/12/16 11:00:21;;;;;;;12.50;11.07;;;;;;;8.14;100.00;153450.75;5003499;28;20451;-92
2020/12/16 11:02:57;;;;;;;12.30;11.00;;;;;;;8.19;100.00;153463.66;5017709;28;20431;-92
2020/12/16 11:05:32;;;;;;;12.87;11.33;;;;;;;8.22;100.00;153470.13;5002543;28;20427;-92
2020/12/16 11:08:08;;;;;;;12.40;10.00;;;;;;;8.20;100.00;153464.97;5002747;28;20585;-92
2020/12/16 11:10:49;;;;;;;13.10;10.27;;;;;;;8.23;100.00;153474.03;5008346;28;20439;-92
2020/12/16 11:13:26;;;;;;;11.93;10.10;;;;;;;8.25;100.00;153479.19;4999129;28;20425;-93
2020/12/16 11:16:01;;;;;;;12.07;10.50;;;;;;;8.23;100.00;153472.72;5006080;28;20834;-92
2020/12/16 11:18:37;;;;;;;15.03;13.00;;;;;;;8.48;100.00;153537.38;5010282;28;20449;-92
2020/12/16 11:21:12;;;;;;;13.70;12.00;;;;;;;8.46;100.00;153532.22;5002277;28;20483;-93
2020/12/16 11:23:47;;;;;;;17.37;12.23;;;;;;;8.58;100.00;153564.53;5018084;28;20446;-93
2020/12/16 11:26:23;;;;;;;15.13;12.23;;;;;;;8.58;100.00;153564.53;5034828;28;20444;-92
2020/12/16 11:28:59;;;;;;;12.07;10.83;;;;;;;8.54;100.00;153554.19;5017670;28;20471;-91
2020/12/16 11:31:40;;;;;;;12.83;11.40;;;;;;;8.54;100.00;153554.19;5017167;28;20451;-91
2020/12/16 11:34:16;;;;;;;14.07;10.87;;;;;;;8.54;100.00;153552.91;5017697;28;20786;-93
2020/12/16 11:36:54;;;;;;;13.77;10.70;;;;;;;8.63;100.00;153574.88;4997588;28;20884;-93
2020/12/16 11:39:29;;;;;;;13.20;10.90;;;;;;;8.76;100.00;153609.81;5015456;28;20845;-93
2020/12/16 11:42:04;;;;;;;12.47;11.27;;;;;;;8.70;100.00;153594.28;5017663;28;20554;-93
2020/12/16 11:44:41;;;;;;;13.87;11.60;;;;;;;8.86;100.00;153635.66;5002355;28;20426;-92
2020/12/16 11:47:16;;;;;;;12.97;10.40;;;;;;;8.85;100.00;153631.75;5016593;28;20450;-92
2020/12/16 11:49:51;;;;;;;12.60;10.60;;;;;;;8.93;100.00;153652.44;5017186;28;20483;-93
2020/12/16 11:52:27;;;;;;;14.30;11.20;;;;;;;8.88;100.00;153639.50;5002028;28;20455;-93
2020/12/16 11:55:02;;;;;;;13.60;11.40;;;;;;;8.92;100.00;153649.88;5013462;28;20901;-93
2020/12/16 11:57:37;;;;;;;12.80;10.63;;;;;;;9.08;100.00;153692.50;5017655;28;20432;-91
2020/12/16 12:00:14;;;;;;;16.07;11.67;;;;;;;8.98;100.00;153665.34;4994074;28;20448;-91
2020/12/16 12:02:50;;;;;;;14.50;11.77;;;;;;;8.94;100.00;153655.03;4997364;28;20432;-93
2020/12/16 12:05:25;;;;;;;11.90;10.67;;;;;;;8.91;100.00;153647.28;5001670;28;20443;-91
2020/12/16 12:08:01;;;;;;;12.83;11.20;;;;;;;9.01;100.00;153673.13;5016498;28;20477;-92